Kyme — XUPY9 — position and weather

sailwx.info

Track history (hours):
 
Tides and Currents Weather Stations Pressure Air Temp Water Temp Dewpoint Dewpoint Depression Visibility Wind Speed Wind Dir Waves Ship Positions

Kyme

Last reported at 2014-Dec-19 02:27 UTC. Time now 2014-Dec-23 03:44 UTC.
Position N 40°28' E 026°50'.

Length 114 m; draft 2.1 m.

Type: Cargo ship. MMSI: 514283000.

Date/timePositionNaut miles runAvg speedWind from/ knotsBaromVisibWave heightAir tempDewpointWater temp
2014-Dec-19 02:27N 40°28' E 026°50'92 7.0
2014-Dec-18 13:20N 40°48' E 028°48'6 7.2
2014-Dec-18 12:33N 40°48' E 028°55'8 7.6
2014-Dec-18 11:33N 40°50' E 029°05'5 4.7
2014-Dec-18 10:28N 40°52' E 029°11'0 0.0
2014-Dec-18 09:22N 40°52' E 029°11'0 0.0
2014-Dec-18 08:10N 40°52' E 029°11'0 0.0
2014-Dec-18 07:10N 40°52' E 029°11'0 0.0
2014-Dec-18 06:22N 40°52' E 029°11'0 0.0
2014-Dec-18 05:28N 40°52' E 029°11'0 0.0
2014-Dec-18 04:16N 40°52' E 029°11'0 0.0
2014-Dec-18 03:16N 40°52' E 029°11'0 0.0
2014-Dec-18 02:28N 40°52' E 029°11'0 0.0
2014-Dec-18 01:28N 40°52' E 029°11'0 0.1
2014-Dec-18 00:28N 40°52' E 029°11'0 0.0
2014-Dec-17 23:22N 40°52' E 029°11'0 0.0
2014-Dec-17 22:22N 40°52' E 029°11'0 0.0
2014-Dec-17 21:28N 40°52' E 029°11'0 0.0
2014-Dec-17 20:28N 40°52' E 029°11'0 0.0
2014-Dec-17 19:22N 40°52' E 029°11'0 0.0
2014-Dec-17 18:34N 40°52' E 029°11'0 0.0
2014-Dec-17 17:33N 40°52' E 029°11'0 0.0
2014-Dec-17 16:33N 40°52' E 029°11'0 0.0
2014-Dec-17 15:33N 40°52' E 029°11'0 0.0
2014-Dec-17 14:15N 40°52' E 029°11'0 0.0
2014-Dec-17 13:33N 40°52' E 029°11'0 0.0
2014-Dec-17 12:27N 40°52' E 029°11'0 0.0
2014-Dec-17 11:27N 40°52' E 029°11'0 0.0
2014-Dec-17 10:27N 40°52' E 029°11'0 0.0
2014-Dec-17 09:33N 40°52' E 029°11'0 0.0
2014-Dec-17 08:33N 40°52' E 029°11'0 0.0
2014-Dec-17 07:33N 40°52' E 029°11'0 0.0
2014-Dec-17 06:33N 40°52' E 029°11'0 0.0
2014-Dec-17 05:33N 40°52' E 029°11'0 0.0
2014-Dec-17 04:15N 40°52' E 029°11'0 0.0
2014-Dec-17 03:27N 40°52' E 029°11'0 0.0
2014-Dec-17 02:33N 40°52' E 029°11'0 0.0
2014-Dec-17 01:27N 40°52' E 029°11'0 0.0
2014-Dec-17 00:33N 40°52' E 029°11'0 0.0
2014-Dec-16 23:30N 40°52' E 029°11'0 0.0
2014-Dec-16 22:30N 40°52' E 029°11'3 2.8
2014-Dec-16 21:33N 40°50' E 029°09'6 5.7
2014-Dec-16 20:33N 40°51' E 029°01'6 5.9
2014-Dec-16 19:32N 40°56' E 028°56'  
2014-Dec-09 17:31N 41°16' E 029°09'  
Track history (hours):
 
Tides and Currents Weather Stations Pressure Air Temp Water Temp Dewpoint Dewpoint Depression Visibility Wind Speed Wind Dir Waves Ship Positions

Kyme

Last reported at 2014-Dec-19 02:27 UTC. Time now 2014-Dec-23 03:44 UTC.
Position N 40°28' E 026°50'.

Length 114 m; draft 2.1 m.

Type: Cargo ship. MMSI: 514283000.

Date/timePositionNaut miles runAvg speedWind from/ knotsBaromVisibWave heightAir tempDewpointWater temp
2014-Dec-19 02:27N 40°28' E 026°50'92 7.0
2014-Dec-18 13:20N 40°48' E 028°48'6 7.2
2014-Dec-18 12:33N 40°48' E 028°55'8 7.6
2014-Dec-18 11:33N 40°50' E 029°05'5 4.7
2014-Dec-18 10:28N 40°52' E 029°11'0 0.0
2014-Dec-18 09:22N 40°52' E 029°11'0 0.0
2014-Dec-18 08:10N 40°52' E 029°11'0 0.0
2014-Dec-18 07:10N 40°52' E 029°11'0 0.0
2014-Dec-18 06:22N 40°52' E 029°11'0 0.0
2014-Dec-18 05:28N 40°52' E 029°11'0 0.0
2014-Dec-18 04:16N 40°52' E 029°11'0 0.0
2014-Dec-18 03:16N 40°52' E 029°11'0 0.0
2014-Dec-18 02:28N 40°52' E 029°11'0 0.0
2014-Dec-18 01:28N 40°52' E 029°11'0 0.1
2014-Dec-18 00:28N 40°52' E 029°11'0 0.0
2014-Dec-17 23:22N 40°52' E 029°11'0 0.0
2014-Dec-17 22:22N 40°52' E 029°11'0 0.0
2014-Dec-17 21:28N 40°52' E 029°11'0 0.0
2014-Dec-17 20:28N 40°52' E 029°11'0 0.0
2014-Dec-17 19:22N 40°52' E 029°11'0 0.0
2014-Dec-17 18:34N 40°52' E 029°11'0 0.0
2014-Dec-17 17:33N 40°52' E 029°11'0 0.0
2014-Dec-17 16:33N 40°52' E 029°11'0 0.0
2014-Dec-17 15:33N 40°52' E 029°11'0 0.0
2014-Dec-17 14:15N 40°52' E 029°11'0 0.0
2014-Dec-17 13:33N 40°52' E 029°11'0 0.0
2014-Dec-17 12:27N 40°52' E 029°11'0 0.0
2014-Dec-17 11:27N 40°52' E 029°11'0 0.0
2014-Dec-17 10:27N 40°52' E 029°11'0 0.0
2014-Dec-17 09:33N 40°52' E 029°11'0 0.0
2014-Dec-17 08:33N 40°52' E 029°11'0 0.0
2014-Dec-17 07:33N 40°52' E 029°11'0 0.0
2014-Dec-17 06:33N 40°52' E 029°11'0 0.0
2014-Dec-17 05:33N 40°52' E 029°11'0 0.0
2014-Dec-17 04:15N 40°52' E 029°11'0 0.0
2014-Dec-17 03:27N 40°52' E 029°11'0 0.0
2014-Dec-17 02:33N 40°52' E 029°11'0 0.0
2014-Dec-17 01:27N 40°52' E 029°11'0 0.0
2014-Dec-17 00:33N 40°52' E 029°11'0 0.0
2014-Dec-16 23:30N 40°52' E 029°11'0 0.0
2014-Dec-16 22:30N 40°52' E 029°11'3 2.8
2014-Dec-16 21:33N 40°50' E 029°09'6 5.7
2014-Dec-16 20:33N 40°51' E 029°01'6 5.9
2014-Dec-16 19:32N 40°56' E 028°56'  
2014-Dec-09 17:31N 41°16' E 029°09'  

Dump ship's entire track history